sensor_id;sensor_type;location;lat;lon;timestamp;temperature;humidity
26907;DHT22;14472;56.880;16.658;2023-07-20T00:01:19;16.90;1.00
26907;DHT22;14472;56.880;16.658;2023-07-20T00:03:45;16.80;1.00
26907;DHT22;14472;56.880;16.658;2023-07-20T00:06:13;16.80;1.00
26907;DHT22;14472;56.880;16.658;2023-07-20T00:08:39;16.80;1.00
26907;DHT22;14472;56.880;16.658;2023-07-20T00:11:05;16.80;1.00
26907;DHT22;14472;56.880;16.658;2023-07-20T00:13:31;16.80;1.00
26907;DHT22;14472;56.880;16.658;2023-07-20T00:15:56;16.80;1.00
26907;DHT22;14472;56.880;16.658;2023-07-20T00:18:22;16.70;1.00
26907;DHT22;14472;56.880;16.658;2023-07-20T00:20:48;16.70;1.00
26907;DHT22;14472;56.880;16.658;2023-07-20T00:23:14;16.70;1.00
26907;DHT22;14472;56.880;16.658;2023-07-20T00:25:39;16.60;1.00
26907;DHT22;14472;56.880;16.658;2023-07-20T00:28:05;16.60;1.00
26907;DHT22;14472;56.880;16.658;2023-07-20T00:30:31;16.60;1.00
26907;DHT22;14472;56.880;16.658;2023-07-20T00:32:56;16.60;1.00
26907;DHT22;14472;56.880;16.658;2023-07-20T00:35:22;16.60;1.00
26907;DHT22;14472;56.880;16.658;2023-07-20T00:37:48;16.60;1.00
26907;DHT22;14472;56.880;16.658;2023-07-20T00:40:14;16.50;1.00
26907;DHT22;14472;56.880;16.658;2023-07-20T00:42:39;16.50;1.00
26907;DHT22;14472;56.880;16.658;2023-07-20T00:45:06;16.50;1.00
26907;DHT22;14472;56.880;16.658;2023-07-20T00:47:32;16.50;1.00
26907;DHT22;14472;56.880;16.658;2023-07-20T00:49:58;16.50;1.00
26907;DHT22;14472;56.880;16.658;2023-07-20T00:52:25;16.50;1.00
26907;DHT22;14472;56.880;16.658;2023-07-20T00:54:52;16.40;1.00
26907;DHT22;14472;56.880;16.658;2023-07-20T00:57:21;16.40;1.00
26907;DHT22;14472;56.880;16.658;2023-07-20T00:59:48;16.40;1.00
26907;DHT22;14472;56.880;16.658;2023-07-20T01:02:14;16.40;1.00
26907;DHT22;14472;56.880;16.658;2023-07-20T01:04:40;16.40;1.00
26907;DHT22;14472;56.880;16.658;2023-07-20T01:10:04;16.30;1.00
26907;DHT22;14472;56.880;16.658;2023-07-20T01:12:47;16.30;1.00
26907;DHT22;14472;56.880;16.658;2023-07-20T01:15:13;16.40;1.00
26907;DHT22;14472;56.880;16.658;2023-07-20T01:17:39;16.30;1.00
26907;DHT22;14472;56.880;16.658;2023-07-20T01:20:11;16.30;1.00
26907;DHT22;14472;56.880;16.658;2023-07-20T01:26:02;16.20;1.00
26907;DHT22;14472;56.880;16.658;2023-07-20T01:31:32;16.20;1.00
26907;DHT22;14472;56.880;16.658;2023-07-20T01:34:01;16.20;1.00
26907;DHT22;14472;56.880;16.658;2023-07-20T01:36:30;16.20;1.00
26907;DHT22;14472;56.880;16.658;2023-07-20T01:38:59;16.20;1.00
26907;DHT22;14472;56.880;16.658;2023-07-20T01:41:24;16.10;1.00
26907;DHT22;14472;56.880;16.658;2023-07-20T01:43:50;16.20;1.00
26907;DHT22;14472;56.880;16.658;2023-07-20T01:46:16;16.10;1.00
26907;DHT22;14472;56.880;16.658;2023-07-20T01:48:42;16.10;1.00
26907;DHT22;14472;56.880;16.658;2023-07-20T01:51:08;16.10;1.00
26907;DHT22;14472;56.880;16.658;2023-07-20T01:53:34;16.10;1.00
26907;DHT22;14472;56.880;16.658;2023-07-20T01:55:59;16.10;1.00
26907;DHT22;14472;56.880;16.658;2023-07-20T01:58:25;16.10;1.00
26907;DHT22;14472;56.880;16.658;2023-07-20T02:00:51;16.10;1.00
26907;DHT22;14472;56.880;16.658;2023-07-20T02:03:17;16.10;1.00
26907;DHT22;14472;56.880;16.658;2023-07-20T02:05:43;16.10;1.00
26907;DHT22;14472;56.880;16.658;2023-07-20T02:08:09;16.10;1.00
26907;DHT22;14472;56.880;16.658;2023-07-20T02:10:35;16.10;1.00
26907;DHT22;14472;56.880;16.658;2023-07-20T02:13:01;16.00;1.00
26907;DHT22;14472;56.880;16.658;2023-07-20T02:15:26;16.00;1.00
26907;DHT22;14472;56.880;16.658;2023-07-20T02:17:53;16.00;1.00
26907;DHT22;14472;56.880;16.658;2023-07-20T02:20:19;16.00;1.00
26907;DHT22;14472;56.880;16.658;2023-07-20T02:22:45;16.00;1.00
26907;DHT22;14472;56.880;16.658;2023-07-20T02:25:11;16.00;1.00
26907;DHT22;14472;56.880;16.658;2023-07-20T02:27:37;16.00;1.00
26907;DHT22;14472;56.880;16.658;2023-07-20T02:30:03;15.90;1.00
26907;DHT22;14472;56.880;16.658;2023-07-20T02:32:30;15.90;1.00
26907;DHT22;14472;56.880;16.658;2023-07-20T02:34:57;15.90;1.00
26907;DHT22;14472;56.880;16.658;2023-07-20T02:37:23;15.90;1.00
26907;DHT22;14472;56.880;16.658;2023-07-20T02:39:50;15.80;1.00
26907;DHT22;14472;56.880;16.658;2023-07-20T02:42:16;15.80;1.00
26907;DHT22;14472;56.880;16.658;2023-07-20T02:44:41;15.80;1.00
26907;DHT22;14472;56.880;16.658;2023-07-20T02:47:07;15.80;1.00
26907;DHT22;14472;56.880;16.658;2023-07-20T02:49:33;15.80;1.00
26907;DHT22;14472;56.880;16.658;2023-07-20T02:51:59;15.80;1.00
26907;DHT22;14472;56.880;16.658;2023-07-20T02:54:24;15.80;1.00
26907;DHT22;14472;56.880;16.658;2023-07-20T02:56:50;15.80;1.00
26907;DHT22;14472;56.880;16.658;2023-07-20T02:59:16;15.80;1.00
26907;DHT22;14472;56.880;16.658;2023-07-20T03:01:41;15.80;1.00
26907;DHT22;14472;56.880;16.658;2023-07-20T03:04:10;15.80;1.00
26907;DHT22;14472;56.880;16.658;2023-07-20T03:06:36;15.80;1.00
26907;DHT22;14472;56.880;16.658;2023-07-20T03:09:02;15.70;1.00
26907;DHT22;14472;56.880;16.658;2023-07-20T03:11:29;15.70;1.00
26907;DHT22;14472;56.880;16.658;2023-07-20T03:13:55;15.70;1.00
26907;DHT22;14472;56.880;16.658;2023-07-20T03:16:23;15.70;1.00
26907;DHT22;14472;56.880;16.658;2023-07-20T03:18:49;15.70;1.00
26907;DHT22;14472;56.880;16.658;2023-07-20T03:21:14;15.70;1.00
26907;DHT22;14472;56.880;16.658;2023-07-20T03:23:40;15.70;1.00
26907;DHT22;14472;56.880;16.658;2023-07-20T03:26:06;15.70;1.00
26907;DHT22;14472;56.880;16.658;2023-07-20T03:28:36;15.70;1.00
26907;DHT22;14472;56.880;16.658;2023-07-20T03:31:02;15.70;1.00
26907;DHT22;14472;56.880;16.658;2023-07-20T03:33:29;15.60;1.00
26907;DHT22;14472;56.880;16.658;2023-07-20T03:35:55;15.70;1.00
26907;DHT22;14472;56.880;16.658;2023-07-20T03:38:22;15.60;1.00
26907;DHT22;14472;56.880;16.658;2023-07-20T03:40:57;15.70;1.00
26907;DHT22;14472;56.880;16.658;2023-07-20T03:43:24;15.60;1.00
26907;DHT22;14472;56.880;16.658;2023-07-20T03:45:51;15.60;1.00
26907;DHT22;14472;56.880;16.658;2023-07-20T03:48:22;15.60;1.00
26907;DHT22;14472;56.880;16.658;2023-07-20T03:50:49;15.70;1.00
26907;DHT22;14472;56.880;16.658;2023-07-20T03:53:16;15.60;1.00
26907;DHT22;14472;56.880;16.658;2023-07-20T03:55:49;15.60;1.00
26907;DHT22;14472;56.880;16.658;2023-07-20T03:58:15;15.60;1.00
26907;DHT22;14472;56.880;16.658;2023-07-20T04:00:49;15.60;1.00
26907;DHT22;14472;56.880;16.658;2023-07-20T04:03:19;15.60;1.00
26907;DHT22;14472;56.880;16.658;2023-07-20T04:05:45;15.60;1.00
26907;DHT22;14472;56.880;16.658;2023-07-20T04:08:11;15.70;1.00
26907;DHT22;14472;56.880;16.658;2023-07-20T04:10:37;15.60;1.00
26907;DHT22;14472;56.880;16.658;2023-07-20T04:13:04;15.60;1.00
26907;DHT22;14472;56.880;16.658;2023-07-20T04:15:30;15.60;1.00
26907;DHT22;14472;56.880;16.658;2023-07-20T04:17:56;15.60;1.00
26907;DHT22;14472;56.880;16.658;2023-07-20T04:20:23;15.70;1.00
26907;DHT22;14472;56.880;16.658;2023-07-20T04:22:49;15.60;1.00
26907;DHT22;14472;56.880;16.658;2023-07-20T04:25:15;15.60;1.00
26907;DHT22;14472;56.880;16.658;2023-07-20T04:27:41;15.70;1.00
26907;DHT22;14472;56.880;16.658;2023-07-20T04:30:08;15.70;1.00
26907;DHT22;14472;56.880;16.658;2023-07-20T04:32:34;15.70;1.00
26907;DHT22;14472;56.880;16.658;2023-07-20T04:35:00;15.70;1.00
26907;DHT22;14472;56.880;16.658;2023-07-20T04:37:26;15.70;1.00
26907;DHT22;14472;56.880;16.658;2023-07-20T04:39:51;15.80;1.00
26907;DHT22;14472;56.880;16.658;2023-07-20T04:42:17;15.80;1.00
26907;DHT22;14472;56.880;16.658;2023-07-20T04:44:43;15.80;1.00
26907;DHT22;14472;56.880;16.658;2023-07-20T04:47:09;15.80;1.00
26907;DHT22;14472;56.880;16.658;2023-07-20T04:49:35;15.80;1.00
26907;DHT22;14472;56.880;16.658;2023-07-20T04:52:00;15.80;1.00
26907;DHT22;14472;56.880;16.658;2023-07-20T04:54:28;15.80;1.00
26907;DHT22;14472;56.880;16.658;2023-07-20T04:56:54;15.80;1.00
26907;DHT22;14472;56.880;16.658;2023-07-20T04:59:19;15.80;1.00
26907;DHT22;14472;56.880;16.658;2023-07-20T05:01:45;15.80;1.00
26907;DHT22;14472;56.880;16.658;2023-07-20T05:04:11;15.80;1.00
26907;DHT22;14472;56.880;16.658;2023-07-20T05:06:37;15.80;1.00
26907;DHT22;14472;56.880;16.658;2023-07-20T05:09:04;15.80;1.00
26907;DHT22;14472;56.880;16.658;2023-07-20T05:11:32;15.80;1.00
26907;DHT22;14472;56.880;16.658;2023-07-20T05:13:57;15.90;1.00
26907;DHT22;14472;56.880;16.658;2023-07-20T05:16:23;15.90;1.00
26907;DHT22;14472;56.880;16.658;2023-07-20T05:18:49;15.90;1.00
26907;DHT22;14472;56.880;16.658;2023-07-20T05:21:14;15.90;1.00
26907;DHT22;14472;56.880;16.658;2023-07-20T05:23:40;16.00;1.00
26907;DHT22;14472;56.880;16.658;2023-07-20T05:26:06;16.00;1.00
26907;DHT22;14472;56.880;16.658;2023-07-20T05:28:31;16.00;1.00
26907;DHT22;14472;56.880;16.658;2023-07-20T05:30:57;16.00;1.00
26907;DHT22;14472;56.880;16.658;2023-07-20T05:33:25;16.00;1.00
26907;DHT22;14472;56.880;16.658;2023-07-20T05:35:50;16.00;1.00
26907;DHT22;14472;56.880;16.658;2023-07-20T05:38:16;16.10;1.00
26907;DHT22;14472;56.880;16.658;2023-07-20T05:40:43;16.10;1.00
26907;DHT22;14472;56.880;16.658;2023-07-20T05:43:10;16.10;1.00
26907;DHT22;14472;56.880;16.658;2023-07-20T05:45:36;16.20;1.00
26907;DHT22;14472;56.880;16.658;2023-07-20T05:48:02;16.20;1.00
26907;DHT22;14472;56.880;16.658;2023-07-20T05:50:28;16.20;1.00
26907;DHT22;14472;56.880;16.658;2023-07-20T05:52:54;16.30;1.00
26907;DHT22;14472;56.880;16.658;2023-07-20T05:55:20;16.30;1.00
26907;DHT22;14472;56.880;16.658;2023-07-20T05:57:46;16.30;1.00
26907;DHT22;14472;56.880;16.658;2023-07-20T06:00:14;16.30;1.00
26907;DHT22;14472;56.880;16.658;2023-07-20T06:02:40;16.30;1.00
26907;DHT22;14472;56.880;16.658;2023-07-20T06:05:09;16.30;1.00
26907;DHT22;14472;56.880;16.658;2023-07-20T06:07:37;16.30;1.00
26907;DHT22;14472;56.880;16.658;2023-07-20T06:10:04;16.40;1.00
26907;DHT22;14472;56.880;16.658;2023-07-20T06:12:31;16.40;1.00
26907;DHT22;14472;56.880;16.658;2023-07-20T06:14:57;16.50;1.00
26907;DHT22;14472;56.880;16.658;2023-07-20T06:17:23;16.50;1.00
26907;DHT22;14472;56.880;16.658;2023-07-20T06:19:49;16.50;1.00
26907;DHT22;14472;56.880;16.658;2023-07-20T06:22:15;16.50;1.00
26907;DHT22;14472;56.880;16.658;2023-07-20T06:24:41;16.60;1.00
26907;DHT22;14472;56.880;16.658;2023-07-20T06:27:06;16.60;1.00
26907;DHT22;14472;56.880;16.658;2023-07-20T06:29:32;16.70;1.00
26907;DHT22;14472;56.880;16.658;2023-07-20T06:31:58;16.80;1.00
26907;DHT22;14472;56.880;16.658;2023-07-20T06:34:24;16.80;1.00
26907;DHT22;14472;56.880;16.658;2023-07-20T06:36:50;16.80;1.00
26907;DHT22;14472;56.880;16.658;2023-07-20T06:39:15;16.90;1.00
26907;DHT22;14472;56.880;16.658;2023-07-20T06:41:41;16.90;1.00
26907;DHT22;14472;56.880;16.658;2023-07-20T06:44:07;16.90;1.00
26907;DHT22;14472;56.880;16.658;2023-07-20T06:46:33;17.00;1.00
26907;DHT22;14472;56.880;16.658;2023-07-20T06:48:59;17.10;1.00
26907;DHT22;14472;56.880;16.658;2023-07-20T06:51:25;17.20;1.00
26907;DHT22;14472;56.880;16.658;2023-07-20T06:53:50;17.20;1.00
26907;DHT22;14472;56.880;16.658;2023-07-20T06:56:16;17.30;1.00
26907;DHT22;14472;56.880;16.658;2023-07-20T06:58:43;17.40;1.00
26907;DHT22;14472;56.880;16.658;2023-07-20T07:01:09;17.40;1.00
26907;DHT22;14472;56.880;16.658;2023-07-20T07:03:35;17.50;1.00
26907;DHT22;14472;56.880;16.658;2023-07-20T07:06:02;17.50;1.00
26907;DHT22;14472;56.880;16.658;2023-07-20T07:08:28;17.50;1.00
26907;DHT22;14472;56.880;16.658;2023-07-20T07:10:53;17.60;1.00
26907;DHT22;14472;56.880;16.658;2023-07-20T07:13:19;17.70;1.00
26907;DHT22;14472;56.880;16.658;2023-07-20T07:15:45;17.70;1.00
26907;DHT22;14472;56.880;16.658;2023-07-20T07:18:11;17.70;1.00
26907;DHT22;14472;56.880;16.658;2023-07-20T07:20:37;17.80;1.00
26907;DHT22;14472;56.880;16.658;2023-07-20T07:23:03;17.90;1.00
26907;DHT22;14472;56.880;16.658;2023-07-20T07:25:28;17.90;1.00
26907;DHT22;14472;56.880;16.658;2023-07-20T07:27:55;18.00;1.00
26907;DHT22;14472;56.880;16.658;2023-07-20T07:30:21;18.10;1.00
26907;DHT22;14472;56.880;16.658;2023-07-20T07:32:47;18.10;1.00
26907;DHT22;14472;56.880;16.658;2023-07-20T07:35:13;18.20;1.00
26907;DHT22;14472;56.880;16.658;2023-07-20T07:37:39;18.30;1.00
26907;DHT22;14472;56.880;16.658;2023-07-20T07:40:05;18.30;1.00
26907;DHT22;14472;56.880;16.658;2023-07-20T07:42:32;18.40;1.00
26907;DHT22;14472;56.880;16.658;2023-07-20T07:44:57;18.30;1.00
26907;DHT22;14472;56.880;16.658;2023-07-20T07:47:23;18.30;1.00
26907;DHT22;14472;56.880;16.658;2023-07-20T07:49:49;18.30;1.00
26907;DHT22;14472;56.880;16.658;2023-07-20T07:52:15;18.40;1.00
26907;DHT22;14472;56.880;16.658;2023-07-20T07:54:41;18.40;1.00
26907;DHT22;14472;56.880;16.658;2023-07-20T07:57:07;18.40;1.00
26907;DHT22;14472;56.880;16.658;2023-07-20T07:59:32;18.50;1.00
26907;DHT22;14472;56.880;16.658;2023-07-20T08:02:04;18.60;1.00
26907;DHT22;14472;56.880;16.658;2023-07-20T08:04:30;18.60;1.00
26907;DHT22;14472;56.880;16.658;2023-07-20T08:06:56;18.60;1.00
26907;DHT22;14472;56.880;16.658;2023-07-20T08:09:21;18.70;1.00
26907;DHT22;14472;56.880;16.658;2023-07-20T08:11:47;18.80;1.00
26907;DHT22;14472;56.880;16.658;2023-07-20T08:14:13;18.80;1.00
26907;DHT22;14472;56.880;16.658;2023-07-20T08:16:39;18.90;1.00
26907;DHT22;14472;56.880;16.658;2023-07-20T08:19:05;19.00;1.00
26907;DHT22;14472;56.880;16.658;2023-07-20T08:21:31;19.00;1.00
26907;DHT22;14472;56.880;16.658;2023-07-20T08:23:56;19.10;1.00
26907;DHT22;14472;56.880;16.658;2023-07-20T08:26:23;19.10;1.00
26907;DHT22;14472;56.880;16.658;2023-07-20T08:28:49;19.10;1.00
26907;DHT22;14472;56.880;16.658;2023-07-20T08:31:15;19.10;1.00
26907;DHT22;14472;56.880;16.658;2023-07-20T08:33:41;19.20;1.00
26907;DHT22;14472;56.880;16.658;2023-07-20T08:36:06;19.30;1.00
26907;DHT22;14472;56.880;16.658;2023-07-20T08:38:33;19.40;1.00
26907;DHT22;14472;56.880;16.658;2023-07-20T08:40:59;19.40;1.00
26907;DHT22;14472;56.880;16.658;2023-07-20T08:43:27;19.50;1.00
26907;DHT22;14472;56.880;16.658;2023-07-20T08:45:57;19.50;1.00
26907;DHT22;14472;56.880;16.658;2023-07-20T08:48:24;19.50;1.00
26907;DHT22;14472;56.880;16.658;2023-07-20T08:50:53;19.60;1.00
26907;DHT22;14472;56.880;16.658;2023-07-20T08:53:20;19.60;1.00
26907;DHT22;14472;56.880;16.658;2023-07-20T08:55:50;19.60;1.00
26907;DHT22;14472;56.880;16.658;2023-07-20T08:58:16;19.70;1.00
26907;DHT22;14472;56.880;16.658;2023-07-20T09:00:43;19.80;1.00
26907;DHT22;14472;56.880;16.658;2023-07-20T09:03:10;19.90;1.00
26907;DHT22;14472;56.880;16.658;2023-07-20T09:05:36;19.90;1.00
26907;DHT22;14472;56.880;16.658;2023-07-20T09:08:02;19.90;1.00
26907;DHT22;14472;56.880;16.658;2023-07-20T09:10:29;20.00;1.00
26907;DHT22;14472;56.880;16.658;2023-07-20T09:12:55;20.10;1.00
26907;DHT22;14472;56.880;16.658;2023-07-20T09:15:22;20.20;1.00
26907;DHT22;14472;56.880;16.658;2023-07-20T09:17:49;20.30;1.00
26907;DHT22;14472;56.880;16.658;2023-07-20T09:20:17;20.30;1.00
26907;DHT22;14472;56.880;16.658;2023-07-20T09:22:44;20.30;1.00
26907;DHT22;14472;56.880;16.658;2023-07-20T09:25:20;20.30;1.00
26907;DHT22;14472;56.880;16.658;2023-07-20T09:27:47;20.40;1.00
26907;DHT22;14472;56.880;16.658;2023-07-20T09:30:14;20.40;1.00
26907;DHT22;14472;56.880;16.658;2023-07-20T09:32:45;20.40;1.00
26907;DHT22;14472;56.880;16.658;2023-07-20T09:35:15;20.40;1.00
26907;DHT22;14472;56.880;16.658;2023-07-20T09:37:55;20.50;1.00
26907;DHT22;14472;56.880;16.658;2023-07-20T09:40:23;20.50;1.00
26907;DHT22;14472;56.880;16.658;2023-07-20T09:42:52;20.50;1.00
26907;DHT22;14472;56.880;16.658;2023-07-20T09:45:18;20.60;1.00
26907;DHT22;14472;56.880;16.658;2023-07-20T09:47:44;20.60;1.00
26907;DHT22;14472;56.880;16.658;2023-07-20T09:50:10;20.70;1.00
26907;DHT22;14472;56.880;16.658;2023-07-20T09:52:45;20.70;1.00
26907;DHT22;14472;56.880;16.658;2023-07-20T09:55:12;20.70;1.00
26907;DHT22;14472;56.880;16.658;2023-07-20T09:57:38;20.70;1.00
26907;DHT22;14472;56.880;16.658;2023-07-20T10:00:06;20.70;1.00
26907;DHT22;14472;56.880;16.658;2023-07-20T10:02:44;20.70;1.00
26907;DHT22;14472;56.880;16.658;2023-07-20T10:05:12;20.80;1.00
26907;DHT22;14472;56.880;16.658;2023-07-20T10:07:49;20.70;1.00
26907;DHT22;14472;56.880;16.658;2023-07-20T10:10:16;20.70;1.00
26907;DHT22;14472;56.880;16.658;2023-07-20T10:12:46;20.80;1.00
26907;DHT22;14472;56.880;16.658;2023-07-20T10:20:26;20.60;1.00
26907;DHT22;14472;56.880;16.658;2023-07-20T10:22:54;20.40;1.00
26907;DHT22;14472;56.880;16.658;2023-07-20T10:25:23;20.20;1.00
26907;DHT22;14472;56.880;16.658;2023-07-20T10:27:49;20.00;1.00
26907;DHT22;14472;56.880;16.658;2023-07-20T10:30:15;19.80;1.00
26907;DHT22;14472;56.880;16.658;2023-07-20T10:32:42;19.50;1.00
26907;DHT22;14472;56.880;16.658;2023-07-20T10:35:13;19.40;1.00
26907;DHT22;14472;56.880;16.658;2023-07-20T10:37:49;19.20;1.00
26907;DHT22;14472;56.880;16.658;2023-07-20T10:40:38;19.00;1.00
26907;DHT22;14472;56.880;16.658;2023-07-20T10:43:05;18.80;1.00
26907;DHT22;14472;56.880;16.658;2023-07-20T10:45:40;18.70;1.00
26907;DHT22;14472;56.880;16.658;2023-07-20T10:48:13;18.60;1.00
26907;DHT22;14472;56.880;16.658;2023-07-20T10:50:40;18.50;1.00
26907;DHT22;14472;56.880;16.658;2023-07-20T10:53:14;18.50;1.00
26907;DHT22;14472;56.880;16.658;2023-07-20T10:55:43;18.40;1.00
26907;DHT22;14472;56.880;16.658;2023-07-20T10:58:14;18.40;1.00
26907;DHT22;14472;56.880;16.658;2023-07-20T11:01:02;18.40;1.00
26907;DHT22;14472;56.880;16.658;2023-07-20T11:03:30;18.40;1.00
26907;DHT22;14472;56.880;16.658;2023-07-20T11:05:57;18.40;1.00
26907;DHT22;14472;56.880;16.658;2023-07-20T11:08:42;18.50;1.00
26907;DHT22;14472;56.880;16.658;2023-07-20T11:11:24;18.50;1.00
26907;DHT22;14472;56.880;16.658;2023-07-20T11:14:00;18.50;1.00
26907;DHT22;14472;56.880;16.658;2023-07-20T11:16:43;18.60;1.00
26907;DHT22;14472;56.880;16.658;2023-07-20T11:19:21;18.60;1.00
26907;DHT22;14472;56.880;16.658;2023-07-20T11:21:58;18.60;1.00
26907;DHT22;14472;56.880;16.658;2023-07-20T11:24:24;18.60;1.00
26907;DHT22;14472;56.880;16.658;2023-07-20T11:26:51;18.80;1.00
26907;DHT22;14472;56.880;16.658;2023-07-20T11:29:20;18.90;1.00
26907;DHT22;14472;56.880;16.658;2023-07-20T11:31:47;18.90;1.00
26907;DHT22;14472;56.880;16.658;2023-07-20T11:34:15;19.00;1.00
26907;DHT22;14472;56.880;16.658;2023-07-20T11:36:42;19.10;1.00
26907;DHT22;14472;56.880;16.658;2023-07-20T11:39:09;19.10;1.00
26907;DHT22;14472;56.880;16.658;2023-07-20T11:41:38;19.20;1.00
26907;DHT22;14472;56.880;16.658;2023-07-20T11:44:05;19.20;1.00
26907;DHT22;14472;56.880;16.658;2023-07-20T11:46:33;19.20;1.00
26907;DHT22;14472;56.880;16.658;2023-07-20T11:49:00;19.20;1.00
26907;DHT22;14472;56.880;16.658;2023-07-20T11:51:30;19.10;1.00
26907;DHT22;14472;56.880;16.658;2023-07-20T11:53:57;19.10;1.00
26907;DHT22;14472;56.880;16.658;2023-07-20T11:56:24;19.20;1.00
26907;DHT22;14472;56.880;16.658;2023-07-20T11:58:50;19.20;1.00
26907;DHT22;14472;56.880;16.658;2023-07-20T12:01:17;19.20;1.00
26907;DHT22;14472;56.880;16.658;2023-07-20T12:03:43;19.20;1.00
26907;DHT22;14472;56.880;16.658;2023-07-20T12:06:10;19.10;1.00
26907;DHT22;14472;56.880;16.658;2023-07-20T12:08:40;19.20;1.00
26907;DHT22;14472;56.880;16.658;2023-07-20T12:11:07;19.20;1.00
26907;DHT22;14472;56.880;16.658;2023-07-20T12:13:43;19.30;1.00
26907;DHT22;14472;56.880;16.658;2023-07-20T12:16:15;19.40;1.00
26907;DHT22;14472;56.880;16.658;2023-07-20T12:18:43;19.40;1.00
26907;DHT22;14472;56.880;16.658;2023-07-20T12:21:09;19.40;1.00
26907;DHT22;14472;56.880;16.658;2023-07-20T12:23:40;19.40;1.00
26907;DHT22;14472;56.880;16.658;2023-07-20T12:26:14;19.40;1.00
26907;DHT22;14472;56.880;16.658;2023-07-20T12:28:41;19.40;1.00
26907;DHT22;14472;56.880;16.658;2023-07-20T12:31:08;19.40;1.00
26907;DHT22;14472;56.880;16.658;2023-07-20T12:33:35;19.50;1.00
26907;DHT22;14472;56.880;16.658;2023-07-20T12:36:01;19.50;1.00
26907;DHT22;14472;56.880;16.658;2023-07-20T12:38:27;19.60;1.00
26907;DHT22;14472;56.880;16.658;2023-07-20T12:40:54;19.60;1.00
26907;DHT22;14472;56.880;16.658;2023-07-20T12:43:24;19.70;1.00
26907;DHT22;14472;56.880;16.658;2023-07-20T12:45:49;19.80;1.00
26907;DHT22;14472;56.880;16.658;2023-07-20T12:48:15;19.90;1.00
26907;DHT22;14472;56.880;16.658;2023-07-20T12:50:41;19.90;1.00
26907;DHT22;14472;56.880;16.658;2023-07-20T12:53:07;20.00;1.00
26907;DHT22;14472;56.880;16.658;2023-07-20T12:55:33;20.10;1.00
26907;DHT22;14472;56.880;16.658;2023-07-20T12:57:59;20.20;1.00
26907;DHT22;14472;56.880;16.658;2023-07-20T13:00:25;20.20;1.00
26907;DHT22;14472;56.880;16.658;2023-07-20T13:02:51;20.30;1.00
26907;DHT22;14472;56.880;16.658;2023-07-20T13:05:17;20.40;1.00
26907;DHT22;14472;56.880;16.658;2023-07-20T13:07:43;20.40;1.00
26907;DHT22;14472;56.880;16.658;2023-07-20T13:10:10;20.40;1.00
26907;DHT22;14472;56.880;16.658;2023-07-20T13:12:37;20.50;1.00
26907;DHT22;14472;56.880;16.658;2023-07-20T13:15:04;20.50;1.00
26907;DHT22;14472;56.880;16.658;2023-07-20T13:17:34;20.60;1.00
26907;DHT22;14472;56.880;16.658;2023-07-20T13:20:01;20.60;1.00
26907;DHT22;14472;56.880;16.658;2023-07-20T13:22:26;20.60;1.00
26907;DHT22;14472;56.880;16.658;2023-07-20T13:24:52;20.60;1.00
26907;DHT22;14472;56.880;16.658;2023-07-20T13:27:19;20.60;1.00
26907;DHT22;14472;56.880;16.658;2023-07-20T13:29:45;20.70;1.00
26907;DHT22;14472;56.880;16.658;2023-07-20T13:32:13;20.70;1.00
26907;DHT22;14472;56.880;16.658;2023-07-20T13:34:40;20.80;1.00
26907;DHT22;14472;56.880;16.658;2023-07-20T13:37:06;20.80;1.00
26907;DHT22;14472;56.880;16.658;2023-07-20T13:39:32;20.90;1.00
26907;DHT22;14472;56.880;16.658;2023-07-20T13:41:58;20.90;1.00
26907;DHT22;14472;56.880;16.658;2023-07-20T13:44:24;20.90;1.00
26907;DHT22;14472;56.880;16.658;2023-07-20T13:46:50;21.00;1.00
26907;DHT22;14472;56.880;16.658;2023-07-20T13:49:16;21.00;1.00
26907;DHT22;14472;56.880;16.658;2023-07-20T13:51:42;20.90;1.00
26907;DHT22;14472;56.880;16.658;2023-07-20T13:54:08;20.80;1.00
26907;DHT22;14472;56.880;16.658;2023-07-20T13:56:34;20.80;1.00
26907;DHT22;14472;56.880;16.658;2023-07-20T13:59:00;20.70;1.00
26907;DHT22;14472;56.880;16.658;2023-07-20T14:01:26;20.70;1.00
26907;DHT22;14472;56.880;16.658;2023-07-20T14:03:54;20.70;1.00
26907;DHT22;14472;56.880;16.658;2023-07-20T14:06:20;20.60;1.00
26907;DHT22;14472;56.880;16.658;2023-07-20T14:08:46;20.60;1.00
26907;DHT22;14472;56.880;16.658;2023-07-20T14:11:15;20.60;1.00
26907;DHT22;14472;56.880;16.658;2023-07-20T14:13:41;20.60;1.00
26907;DHT22;14472;56.880;16.658;2023-07-20T14:16:07;20.60;1.00
26907;DHT22;14472;56.880;16.658;2023-07-20T14:18:33;20.60;1.00
26907;DHT22;14472;56.880;16.658;2023-07-20T14:20:59;20.60;1.00
26907;DHT22;14472;56.880;16.658;2023-07-20T14:23:27;20.60;1.00
26907;DHT22;14472;56.880;16.658;2023-07-20T14:25:53;20.50;1.00
26907;DHT22;14472;56.880;16.658;2023-07-20T14:28:19;20.50;1.00
26907;DHT22;14472;56.880;16.658;2023-07-20T14:30:45;20.50;1.00
26907;DHT22;14472;56.880;16.658;2023-07-20T14:33:11;20.50;1.00
26907;DHT22;14472;56.880;16.658;2023-07-20T14:35:37;20.50;1.00
26907;DHT22;14472;56.880;16.658;2023-07-20T14:38:03;20.60;1.00
26907;DHT22;14472;56.880;16.658;2023-07-20T14:40:28;20.60;1.00
26907;DHT22;14472;56.880;16.658;2023-07-20T14:42:56;20.60;1.00
26907;DHT22;14472;56.880;16.658;2023-07-20T14:45:22;20.70;1.00
26907;DHT22;14472;56.880;16.658;2023-07-20T14:47:47;20.70;1.00
26907;DHT22;14472;56.880;16.658;2023-07-20T14:50:22;20.80;1.00
26907;DHT22;14472;56.880;16.658;2023-07-20T14:52:49;20.90;1.00
26907;DHT22;14472;56.880;16.658;2023-07-20T14:55:15;21.00;1.00
26907;DHT22;14472;56.880;16.658;2023-07-20T14:57:40;21.00;1.00
26907;DHT22;14472;56.880;16.658;2023-07-20T15:00:07;21.10;1.00
26907;DHT22;14472;56.880;16.658;2023-07-20T15:02:39;21.20;1.00
26907;DHT22;14472;56.880;16.658;2023-07-20T15:05:08;21.20;1.00
26907;DHT22;14472;56.880;16.658;2023-07-20T15:07:34;21.20;1.00
26907;DHT22;14472;56.880;16.658;2023-07-20T15:10:01;21.20;1.00
26907;DHT22;14472;56.880;16.658;2023-07-20T15:12:27;21.20;1.00
26907;DHT22;14472;56.880;16.658;2023-07-20T15:15:06;21.10;1.00
26907;DHT22;14472;56.880;16.658;2023-07-20T15:17:32;21.10;1.00
26907;DHT22;14472;56.880;16.658;2023-07-20T15:19:58;21.10;1.00
26907;DHT22;14472;56.880;16.658;2023-07-20T15:22:25;21.10;1.00
26907;DHT22;14472;56.880;16.658;2023-07-20T15:24:51;20.90;1.00
26907;DHT22;14472;56.880;16.658;2023-07-20T15:27:16;20.70;1.00
26907;DHT22;14472;56.880;16.658;2023-07-20T15:29:43;20.50;1.00
26907;DHT22;14472;56.880;16.658;2023-07-20T15:32:10;20.40;1.00
26907;DHT22;14472;56.880;16.658;2023-07-20T15:34:36;20.30;1.00
26907;DHT22;14472;56.880;16.658;2023-07-20T15:37:01;20.30;1.00
26907;DHT22;14472;56.880;16.658;2023-07-20T15:39:28;20.30;1.00
26907;DHT22;14472;56.880;16.658;2023-07-20T15:41:55;20.30;1.00
26907;DHT22;14472;56.880;16.658;2023-07-20T15:44:21;20.30;1.00